sensor_id;sensor_type;location;lat;lon;timestamp;pressure;altitude;pressure_sealevel;temperature;humidity
83718;BME280;73701;52.234;21.288;2024-02-14T00:00:02;100949.19;;;4.77;80.61
83718;BME280;73701;52.234;21.288;2024-02-14T00:02:27;100965.47;;;4.84;81.75
83718;BME280;73701;52.234;21.288;2024-02-14T00:04:53;100966.34;;;4.80;81.88
83718;BME280;73701;52.234;21.288;2024-02-14T00:07:19;100953.56;;;4.66;82.37
83718;BME280;73701;52.234;21.288;2024-02-14T00:09:44;100971.53;;;4.75;82.00
83718;BME280;73701;52.234;21.288;2024-02-14T00:12:10;100974.13;;;4.61;81.38
83718;BME280;73701;52.234;21.288;2024-02-14T00:14:35;100974.94;;;4.74;81.23
83718;BME280;73701;52.234;21.288;2024-02-14T00:17:01;100970.66;;;4.76;81.42
83718;BME280;73701;52.234;21.288;2024-02-14T00:19:26;100970.72;;;4.61;82.22
83718;BME280;73701;52.234;21.288;2024-02-14T00:21:51;100965.53;;;4.67;81.39
83718;BME280;73701;52.234;21.288;2024-02-14T00:24:17;100980.16;;;4.63;81.57
83718;BME280;73701;52.234;21.288;2024-02-14T00:26:44;100967.31;;;4.49;81.74
83718;BME280;73701;52.234;21.288;2024-02-14T00:29:11;100951.91;;;4.42;82.55
83718;BME280;73701;52.234;21.288;2024-02-14T00:31:36;100978.44;;;4.58;82.05
83718;BME280;73701;52.234;21.288;2024-02-14T00:34:02;100921.09;;;4.26;82.05
83718;BME280;73701;52.234;21.288;2024-02-14T00:36:27;100989.56;;;4.63;82.21
83718;BME280;73701;52.234;21.288;2024-02-14T00:38:52;101014.47;;;4.61;82.01
83718;BME280;73701;52.234;21.288;2024-02-14T00:41:18;100943.34;;;4.38;81.59
83718;BME280;73701;52.234;21.288;2024-02-14T00:43:43;100952.78;;;4.39;82.92
83718;BME280;73701;52.234;21.288;2024-02-14T00:46:09;100991.31;;;4.59;82.68
83718;BME280;73701;52.234;21.288;2024-02-14T00:48:34;100993.00;;;4.59;82.81
83718;BME280;73701;52.234;21.288;2024-02-14T00:50:59;101005.06;;;4.51;82.53
83718;BME280;73701;52.234;21.288;2024-02-14T00:53:25;100945.94;;;4.26;82.87
83718;BME280;73701;52.234;21.288;2024-02-14T00:55:50;100983.63;;;4.45;82.71
83718;BME280;73701;52.234;21.288;2024-02-14T00:58:16;100949.38;;;4.28;83.19
83718;BME280;73701;52.234;21.288;2024-02-14T01:00:41;100987.03;;;4.54;82.72
83718;BME280;73701;52.234;21.288;2024-02-14T01:03:07;100991.34;;;4.55;83.19
83718;BME280;73701;52.234;21.288;2024-02-14T01:05:33;100990.47;;;4.53;83.31
83718;BME280;73701;52.234;21.288;2024-02-14T01:07:58;100988.75;;;4.48;83.45
83718;BME280;73701;52.234;21.288;2024-02-14T01:10:24;100987.91;;;4.48;83.35
83718;BME280;73701;52.234;21.288;2024-02-14T01:12:49;100941.69;;;4.12;83.83
83718;BME280;73701;52.234;21.288;2024-02-14T01:15:14;100963.13;;;4.18;83.66
83718;BME280;73701;52.234;21.288;2024-02-14T01:17:40;100997.38;;;4.38;83.39
83718;BME280;73701;52.234;21.288;2024-02-14T01:20:06;100994.81;;;4.34;84.00
83718;BME280;73701;52.234;21.288;2024-02-14T01:22:34;100886.91;;;3.67;83.03
83718;BME280;73701;52.234;21.288;2024-02-14T01:24:59;100999.94;;;4.32;82.69
83718;BME280;73701;52.234;21.288;2024-02-14T01:27:25;100970.84;;;3.94;82.38
83718;BME280;73701;52.234;21.288;2024-02-14T01:29:50;100944.31;;;3.88;82.62
83718;BME280;73701;52.234;21.288;2024-02-14T01:32:15;101002.53;;;4.23;82.92
83718;BME280;73701;52.234;21.288;2024-02-14T01:34:41;100996.53;;;4.19;82.66
83718;BME280;73701;52.234;21.288;2024-02-14T01:37:09;100992.25;;;4.17;82.89
83718;BME280;73701;52.234;21.288;2024-02-14T01:39:37;100904.91;;;3.61;82.94
83718;BME280;73701;52.234;21.288;2024-02-14T01:42:02;100993.13;;;4.05;83.79
83718;BME280;73701;52.234;21.288;2024-02-14T01:44:32;100999.13;;;4.08;83.53
83718;BME280;73701;52.234;21.288;2024-02-14T01:46:57;100946.88;;;3.69;83.69
83718;BME280;73701;52.234;21.288;2024-02-14T01:49:23;100995.72;;;3.88;84.22
83718;BME280;73701;52.234;21.288;2024-02-14T01:51:49;101017.97;;;3.86;84.57
83718;BME280;73701;52.234;21.288;2024-02-14T01:54:15;100999.97;;;3.79;84.67
83718;BME280;73701;52.234;21.288;2024-02-14T01:56:42;101002.53;;;3.73;84.73
83718;BME280;73701;52.234;21.288;2024-02-14T01:59:09;101004.25;;;3.68;85.06
83718;BME280;73701;52.234;21.288;2024-02-14T02:01:35;101007.69;;;3.64;85.47
83718;BME280;73701;52.234;21.288;2024-02-14T02:04:01;101005.97;;;3.60;85.61
83718;BME280;73701;52.234;21.288;2024-02-14T02:06:26;101006.81;;;3.57;85.72
83718;BME280;73701;52.234;21.288;2024-02-14T02:08:52;101010.25;;;3.56;86.00
83718;BME280;73701;52.234;21.288;2024-02-14T02:11:18;101000.78;;;3.46;86.41
83718;BME280;73701;52.234;21.288;2024-02-14T02:13:44;101006.81;;;3.51;86.40
83718;BME280;73701;52.234;21.288;2024-02-14T02:16:09;101007.66;;;3.49;86.51
83718;BME280;73701;52.234;21.288;2024-02-14T02:18:35;100999.06;;;3.40;86.98
83718;BME280;73701;52.234;21.288;2024-02-14T02:21:00;101000.78;;;3.44;87.31
83718;BME280;73701;52.234;21.288;2024-02-14T02:23:29;101011.06;;;3.41;87.34
83718;BME280;73701;52.234;21.288;2024-02-14T02:25:55;101035.03;;;3.42;86.62
83718;BME280;73701;52.234;21.288;2024-02-14T02:28:20;101000.75;;;3.31;86.95
83718;BME280;73701;52.234;21.288;2024-02-14T02:30:45;101027.34;;;3.43;86.68
83718;BME280;73701;52.234;21.288;2024-02-14T02:33:11;101035.06;;;3.43;87.02
83718;BME280;73701;52.234;21.288;2024-02-14T02:35:37;101019.63;;;3.34;87.20
83718;BME280;73701;52.234;21.288;2024-02-14T02:38:03;101024.75;;;3.37;86.90
83718;BME280;73701;52.234;21.288;2024-02-14T02:40:28;101029.00;;;3.26;87.12
83718;BME280;73701;52.234;21.288;2024-02-14T02:42:54;101050.41;;;3.31;87.26
83718;BME280;73701;52.234;21.288;2024-02-14T02:45:19;101035.84;;;3.28;87.67
83718;BME280;73701;52.234;21.288;2024-02-14T02:47:45;101029.84;;;3.25;87.49
83718;BME280;73701;52.234;21.288;2024-02-14T02:50:10;101039.25;;;3.24;88.00
83718;BME280;73701;52.234;21.288;2024-02-14T02:52:35;101036.69;;;3.21;87.54
83718;BME280;73701;52.234;21.288;2024-02-14T02:55:01;101023.84;;;3.15;88.09
83718;BME280;73701;52.234;21.288;2024-02-14T02:57:30;101014.38;;;3.06;88.07
83718;BME280;73701;52.234;21.288;2024-02-14T02:59:57;101032.41;;;3.19;88.29
83718;BME280;73701;52.234;21.288;2024-02-14T03:02:23;101027.25;;;3.09;88.03
83718;BME280;73701;52.234;21.288;2024-02-14T03:04:48;101034.06;;;3.07;88.46
83718;BME280;73701;52.234;21.288;2024-02-14T09:03:43;101164.44;;;5.34;79.48
83718;BME280;73701;52.234;21.288;2024-02-14T09:06:28;101172.97;;;5.45;78.86
83718;BME280;73701;52.234;21.288;2024-02-14T09:09:13;101181.50;;;5.60;77.48
83718;BME280;73701;52.234;21.288;2024-02-14T11:18:04;101122.94;;;8.26;57.37
83718;BME280;73701;52.234;21.288;2024-02-14T11:20:50;101114.25;;;8.30;58.63
83718;BME280;73701;52.234;21.288;2024-02-14T11:23:54;101114.28;;;8.28;57.51
